createdAt,value
2018-02-21T00:00:17.023Z,0
2018-02-21T00:00:57.574Z,0
2018-02-21T00:01:38.158Z,0
2018-02-21T00:02:18.692Z,0
2018-02-21T00:02:59.231Z,0
2018-02-21T00:03:39.783Z,0
2018-02-21T00:04:20.338Z,0
2018-02-21T00:05:00.885Z,0
2018-02-21T00:05:41.489Z,0
2018-02-21T00:06:22.046Z,0
2018-02-21T00:07:02.595Z,0
2018-02-21T00:07:43.140Z,0
2018-02-21T00:08:23.756Z,0
2018-02-21T00:09:04.293Z,0
2018-02-21T00:09:44.840Z,0
2018-02-21T00:10:25.398Z,0
2018-02-21T00:11:05.962Z,0
2018-02-21T00:11:46.504Z,0
2018-02-21T00:12:27.055Z,0
2018-02-21T00:13:07.611Z,0
2018-02-21T00:13:48.166Z,0
2018-02-21T00:14:28.702Z,0
2018-02-21T00:15:09.256Z,0
2018-02-21T00:15:49.816Z,0
2018-02-21T00:16:30.415Z,0
2018-02-21T00:17:11.013Z,0
2018-02-21T00:17:51.547Z,0
2018-02-21T00:18:32.106Z,0
2018-02-21T00:19:12.647Z,0
2018-02-21T00:19:53.207Z,0
2018-02-21T00:20:33.749Z,0
2018-02-21T00:21:14.297Z,0
2018-02-21T00:21:54.855Z,0
2018-02-21T00:22:35.472Z,0
2018-02-21T00:23:15.976Z,0
2018-02-21T00:23:56.542Z,0
2018-02-21T00:24:37.095Z,0
2018-02-21T00:25:17.633Z,0
2018-02-21T00:25:58.173Z,0
2018-02-21T00:26:38.737Z,0
2018-02-21T00:27:19.259Z,0
2018-02-21T00:27:59.836Z,0
2018-02-21T00:28:40.357Z,0
2018-02-21T00:29:20.975Z,0
2018-02-21T00:30:01.527Z,0
2018-02-21T00:30:42.069Z,0
2018-02-21T00:31:22.623Z,0
2018-02-21T00:32:03.174Z,0
2018-02-21T00:32:43.725Z,0
2018-02-21T00:33:24.302Z,0
2018-02-21T00:34:04.851Z,0
2018-02-21T00:34:45.403Z,0
2018-02-21T00:35:25.966Z,0
2018-02-21T00:36:06.506Z,0
2018-02-21T00:36:47.056Z,0
2018-02-21T00:37:27.602Z,0
2018-02-21T00:38:08.149Z,0
2018-02-21T00:38:48.708Z,0
2018-02-21T00:39:29.248Z,0
2018-02-21T00:40:09.959Z,0
2018-02-21T00:40:50.338Z,0
2018-02-21T00:41:30.889Z,0
2018-02-21T00:42:11.443Z,0
2018-02-21T00:42:51.991Z,0
2018-02-21T00:43:32.537Z,0
2018-02-21T00:44:13.077Z,0
2018-02-21T00:44:53.620Z,0
2018-02-21T00:45:34.175Z,0
2018-02-21T00:46:14.724Z,0
2018-02-21T00:46:55.310Z,0
2018-02-21T00:47:35.932Z,0
2018-02-21T00:48:16.423Z,0
2018-02-21T00:48:56.956Z,0
2018-02-21T00:49:37.508Z,0
2018-02-21T00:50:18.058Z,0
2018-02-21T00:50:58.572Z,0
2018-02-21T00:51:39.101Z,0
2018-02-21T00:52:19.650Z,0
2018-02-21T00:53:00.211Z,0
2018-02-21T00:53:40.753Z,0
2018-02-21T00:54:21.301Z,0
2018-02-21T00:55:01.849Z,0
2018-02-21T00:55:42.380Z,0
2018-02-21T00:56:22.957Z,0
2018-02-21T00:57:03.554Z,0
2018-02-21T00:57:44.075Z,0
2018-02-21T00:58:24.624Z,0
2018-02-21T00:59:05.177Z,0
2018-02-21T00:59:45.734Z,0
2018-02-21T01:00:26.337Z,0
2018-02-21T01:01:06.898Z,0
2018-02-21T01:01:47.461Z,0
2018-02-21T01:02:28.018Z,0
2018-02-21T01:03:08.588Z,0
2018-02-21T01:03:49.140Z,0
2018-02-21T01:04:29.745Z,0
2018-02-21T01:05:10.287Z,0
2018-02-21T01:05:50.834Z,0
2018-02-21T01:06:31.393Z,0
2018-02-21T01:07:11.941Z,0
2018-02-21T01:07:52.493Z,0
2018-02-21T01:08:33.040Z,0
2018-02-21T01:09:13.630Z,0
2018-02-21T01:09:54.150Z,0
2018-02-21T01:10:34.709Z,0
2018-02-21T01:11:15.252Z,0
2018-02-21T01:11:55.816Z,0
2018-02-21T01:12:36.408Z,0
2018-02-21T01:13:16.960Z,0
2018-02-21T01:13:57.517Z,0
2018-02-21T01:14:38.059Z,0
2018-02-21T01:15:18.618Z,0
2018-02-21T01:15:59.175Z,0
2018-02-21T01:16:39.790Z,0
2018-02-21T01:17:20.400Z,0
2018-02-21T01:18:00.914Z,0
2018-02-21T01:18:41.479Z,0
2018-02-21T01:19:22.028Z,0
2018-02-21T01:20:02.592Z,0
2018-02-21T01:20:43.140Z,0
2018-02-21T01:21:23.693Z,0
2018-02-21T01:22:04.225Z,0
2018-02-21T01:22:44.781Z,0
2018-02-21T01:23:25.340Z,0
2018-02-21T01:24:05.908Z,0
2018-02-21T01:24:46.464Z,0
2018-02-21T01:25:27.049Z,0
2018-02-21T01:26:07.597Z,0
2018-02-21T01:26:48.158Z,0
2018-02-21T01:27:28.782Z,0
2018-02-21T01:28:09.361Z,0
2018-02-21T01:28:49.891Z,0
2018-02-21T01:29:30.443Z,0
2018-02-21T01:30:10.992Z,0
2018-02-21T01:30:51.556Z,0
2018-02-21T01:31:32.120Z,0
2018-02-21T01:32:12.665Z,0
2018-02-21T01:32:53.227Z,0
2018-02-21T01:33:33.774Z,0
2018-02-21T01:34:14.351Z,0
2018-02-21T01:34:54.933Z,0
2018-02-21T01:35:35.487Z,0
2018-02-21T01:36:16.046Z,0
2018-02-21T01:36:56.606Z,0
2018-02-21T01:37:37.174Z,0
2018-02-21T01:38:17.731Z,0
2018-02-21T01:38:58.282Z,0
2018-02-21T01:39:38.837Z,0
2018-02-21T01:40:19.385Z,0
2018-02-21T01:40:59.934Z,0
2018-02-21T01:41:40.492Z,0
2018-02-21T01:42:21.049Z,0
2018-02-21T01:43:01.635Z,0
2018-02-21T01:43:42.194Z,0
2018-02-21T01:44:22.739Z,0
2018-02-21T01:45:03.283Z,0
2018-02-21T01:45:43.820Z,0
2018-02-21T01:46:24.383Z,0
2018-02-21T01:47:04.920Z,0
2018-02-21T01:47:45.479Z,0
2018-02-21T01:48:26.099Z,0
2018-02-21T01:49:06.600Z,0
2018-02-21T01:49:47.147Z,0
2018-02-21T01:50:27.723Z,0
2018-02-21T01:51:08.264Z,0
2018-02-21T01:51:48.868Z,0
2018-02-21T01:52:29.409Z,0
2018-02-21T01:53:09.966Z,0
2018-02-21T01:53:50.536Z,0
2018-02-21T01:54:31.097Z,0
2018-02-21T01:55:11.644Z,0
2018-02-21T01:55:52.202Z,0
2018-02-21T01:56:32.753Z,0
2018-02-21T01:57:13.317Z,0
2018-02-21T01:57:53.866Z,0
2018-02-21T01:58:34.427Z,0
2018-02-21T01:59:14.970Z,0
2018-02-21T01:59:55.588Z,0
2018-02-21T02:00:36.199Z,0
2018-02-21T02:01:16.738Z,0
2018-02-21T02:01:57.286Z,0
2018-02-21T02:02:37.881Z,0
2018-02-21T02:03:18.426Z,0
2018-02-21T02:03:58.991Z,0
2018-02-21T02:04:39.530Z,0
2018-02-21T02:05:20.089Z,0
2018-02-21T02:06:00.649Z,0
2018-02-21T02:06:41.202Z,0
2018-02-21T02:07:21.752Z,0
2018-02-21T02:08:02.328Z,0
2018-02-21T02:08:42.876Z,0
2018-02-21T02:09:23.426Z,0
2018-02-21T02:10:04.062Z,0
2018-02-21T02:10:44.647Z,0
2018-02-21T02:11:25.173Z,0
2018-02-21T02:12:05.708Z,0
2018-02-21T02:12:46.274Z,0
2018-02-21T02:13:26.830Z,0
2018-02-21T02:14:07.374Z,0
2018-02-21T02:14:47.933Z,0
2018-02-21T02:15:28.487Z,0
2018-02-21T02:16:09.048Z,0
2018-02-21T02:16:49.607Z,0
2018-02-21T02:17:30.170Z,0
2018-02-21T02:18:10.725Z,0
2018-02-21T02:18:51.313Z,0
2018-02-21T02:19:31.885Z,0
2018-02-21T02:20:12.447Z,0
2018-02-21T02:20:53.006Z,0
2018-02-21T02:21:33.554Z,0
2018-02-21T02:22:14.124Z,0
2018-02-21T02:22:54.684Z,0
2018-02-21T02:23:35.235Z,0
2018-02-21T02:24:15.783Z,0
2018-02-21T02:24:56.333Z,0
2018-02-21T02:25:36.918Z,0
2018-02-21T02:26:17.505Z,0
2018-02-21T02:26:58.058Z,0
2018-02-21T02:27:38.618Z,0
2018-02-21T02:28:19.144Z,0
2018-02-21T02:28:59.732Z,0
2018-02-21T02:29:40.292Z,0
2018-02-21T02:30:20.856Z,0
2018-02-21T02:31:01.457Z,0
2018-02-21T02:31:42.030Z,0
2018-02-21T02:32:22.561Z,0
2018-02-21T02:33:03.125Z,0
2018-02-21T02:33:43.667Z,0
2018-02-21T02:34:24.212Z,0
2018-02-21T02:35:04.823Z,0
2018-02-21T02:35:45.319Z,0
2018-02-21T02:36:25.894Z,0
2018-02-21T02:37:06.465Z,0
2018-02-21T02:37:47.016Z,0
2018-02-21T02:38:27.575Z,0
2018-02-21T02:39:08.122Z,0
2018-02-21T02:39:48.668Z,0
2018-02-21T02:40:29.222Z,0
2018-02-21T02:41:09.800Z,0
2018-02-21T02:41:50.349Z,0
2018-02-21T02:42:30.894Z,0
2018-02-21T02:43:11.436Z,0
2018-02-21T02:43:52.106Z,0
2018-02-21T02:44:32.661Z,0
2018-02-21T02:45:13.196Z,0
2018-02-21T02:45:53.770Z,0
2018-02-21T02:46:34.326Z,0
2018-02-21T02:47:14.936Z,0
2018-02-21T02:47:55.485Z,0
2018-02-21T02:48:36.069Z,0
2018-02-21T02:49:16.629Z,0
2018-02-21T02:49:57.237Z,0
2018-02-21T02:50:37.739Z,0
2018-02-21T02:51:18.297Z,0
2018-02-21T02:51:58.856Z,0
2018-02-21T02:52:39.442Z,0
2018-02-21T02:53:19.998Z,0
2018-02-21T02:54:00.556Z,0
2018-02-21T02:54:41.144Z,0
2018-02-21T02:55:21.746Z,0
2018-02-21T02:56:02.299Z,0
2018-02-21T02:56:42.861Z,0
2018-02-21T02:57:23.412Z,0
2018-02-21T02:58:03.962Z,0
2018-02-21T02:58:44.529Z,0
2018-02-21T02:59:25.069Z,0
2018-02-21T03:00:05.622Z,0
2018-02-21T03:00:46.211Z,0
2018-02-21T03:01:26.777Z,0
2018-02-21T03:02:07.353Z,0
2018-02-21T03:02:47.900Z,0
2018-02-21T03:03:28.448Z,0
2018-02-21T03:04:08.982Z,0
2018-02-21T03:04:49.569Z,0
2018-02-21T03:05:30.130Z,0
2018-02-21T03:06:10.691Z,0
2018-02-21T03:06:51.235Z,0
2018-02-21T03:07:31.829Z,0
2018-02-21T03:08:12.329Z,0
2018-02-21T03:08:52.914Z,0
2018-02-21T03:09:33.470Z,0
2018-02-21T03:10:14.045Z,0
2018-02-21T03:10:54.599Z,0
2018-02-21T03:11:35.193Z,0
2018-02-21T03:12:15.749Z,0
2018-02-21T03:12:56.303Z,0
2018-02-21T03:13:36.850Z,0
2018-02-21T03:14:17.381Z,0
2018-02-21T03:14:57.951Z,0
2018-02-21T03:15:38.507Z,0
2018-02-21T03:16:19.058Z,0
2018-02-21T03:16:59.606Z,0
2018-02-21T03:17:40.157Z,0
2018-02-21T03:18:20.712Z,0
2018-02-21T03:19:01.266Z,0
2018-02-21T03:19:41.799Z,0
2018-02-21T03:20:22.382Z,0
2018-02-21T03:21:02.926Z,0
2018-02-21T03:21:43.478Z,0
2018-02-21T03:22:24.049Z,0
2018-02-21T03:23:04.624Z,0
2018-02-21T03:23:45.152Z,0
2018-02-21T03:24:25.719Z,0
2018-02-21T03:25:06.264Z,0
2018-02-21T03:25:46.834Z,0
2018-02-21T03:26:27.368Z,0
2018-02-21T03:27:07.901Z,0
2018-02-21T03:27:48.443Z,0
2018-02-21T03:28:29.004Z,0
2018-02-21T03:29:09.541Z,0
2018-02-21T03:29:50.081Z,0
2018-02-21T03:30:30.636Z,0
2018-02-21T03:31:11.179Z,0
2018-02-21T03:31:51.720Z,0
2018-02-21T03:32:32.252Z,0
2018-02-21T03:33:12.822Z,0
2018-02-21T03:33:53.369Z,0
2018-02-21T03:34:33.966Z,0
2018-02-21T03:35:14.654Z,0
2018-02-21T03:35:55.216Z,0
2018-02-21T03:36:35.779Z,0
2018-02-21T03:37:16.439Z,0
2018-02-21T03:37:57.012Z,0
2018-02-21T03:38:37.603Z,0
2018-02-21T03:39:18.168Z,0
2018-02-21T03:39:58.726Z,0
2018-02-21T03:40:39.274Z,0
2018-02-21T03:41:19.856Z,0
2018-02-21T03:42:00.400Z,0
2018-02-21T03:42:40.930Z,0
2018-02-21T03:43:21.515Z,0
2018-02-21T03:44:02.056Z,0
2018-02-21T03:44:42.635Z,0
2018-02-21T03:45:23.162Z,0
2018-02-21T03:46:03.705Z,0
2018-02-21T03:46:44.346Z,0
2018-02-21T03:47:24.980Z,0
2018-02-21T03:48:05.565Z,0
2018-02-21T03:48:46.119Z,0
2018-02-21T03:49:26.656Z,0
2018-02-21T03:50:07.211Z,0
2018-02-21T03:50:47.803Z,0
2018-02-21T03:51:28.342Z,0
2018-02-21T03:52:08.894Z,0
2018-02-21T03:52:49.485Z,0
2018-02-21T03:53:30.051Z,0
2018-02-21T03:54:10.616Z,0
2018-02-21T03:54:51.286Z,0
2018-02-21T03:55:31.818Z,0
2018-02-21T03:56:12.440Z,0
2018-02-21T03:56:52.934Z,0
2018-02-21T03:57:33.488Z,0
2018-02-21T03:58:14.029Z,0
2018-02-21T03:58:54.581Z,0
2018-02-21T03:59:35.127Z,0
2018-02-21T04:00:15.719Z,0
2018-02-21T04:00:56.264Z,0
2018-02-21T04:01:36.807Z,0
2018-02-21T04:02:17.387Z,0
2018-02-21T04:02:57.937Z,0
2018-02-21T04:03:38.455Z,0
2018-02-21T04:04:19.021Z,0
2018-02-21T04:04:59.564Z,0
2018-02-21T04:05:40.124Z,0
2018-02-21T04:06:20.682Z,0
2018-02-21T04:07:01.250Z,0
2018-02-21T04:07:41.795Z,0
2018-02-21T04:08:22.349Z,0
2018-02-21T04:09:02.906Z,0
2018-02-21T04:09:43.457Z,0
2018-02-21T04:10:23.964Z,0
2018-02-21T04:11:04.527Z,0
2018-02-21T04:11:45.078Z,0
2018-02-21T04:12:25.622Z,0
2018-02-21T04:13:06.167Z,0
2018-02-21T04:13:46.771Z,0
2018-02-21T04:14:27.319Z,0
2018-02-21T04:15:07.869Z,0
2018-02-21T04:15:48.422Z,0
2018-02-21T04:16:28.985Z,0
2018-02-21T04:17:09.529Z,0
2018-02-21T04:17:50.075Z,0
2018-02-21T04:18:30.631Z,0
2018-02-21T04:19:11.185Z,0
2018-02-21T04:19:51.735Z,0
2018-02-21T04:20:32.335Z,0
2018-02-21T04:21:12.895Z,0
2018-02-21T04:21:53.465Z,0
2018-02-21T04:22:33.998Z,0
2018-02-21T04:23:14.583Z,0
2018-02-21T04:23:55.151Z,0
2018-02-21T04:24:35.697Z,0
2018-02-21T04:25:16.344Z,0
2018-02-21T04:25:56.857Z,0
2018-02-21T04:26:37.422Z,0
2018-02-21T04:27:17.945Z,0
2018-02-21T04:27:58.494Z,0
2018-02-21T04:28:39.072Z,0
2018-02-21T04:29:19.636Z,0
2018-02-21T04:30:00.201Z,0
2018-02-21T04:30:40.751Z,0
2018-02-21T04:31:21.323Z,0
2018-02-21T04:32:01.871Z,0
2018-02-21T04:32:42.440Z,0
2018-02-21T04:33:23.002Z,0
2018-02-21T04:34:03.554Z,0
2018-02-21T04:34:44.104Z,0
2018-02-21T04:35:24.674Z,0
2018-02-21T04:36:05.215Z,0
2018-02-21T04:36:45.756Z,0
2018-02-21T04:37:26.312Z,0
2018-02-21T04:38:06.855Z,0
2018-02-21T04:38:47.399Z,0
2018-02-21T04:39:27.945Z,0
2018-02-21T04:40:08.512Z,0
2018-02-21T04:40:49.060Z,0
2018-02-21T04:41:29.623Z,0
2018-02-21T04:42:10.168Z,0
2018-02-21T04:42:50.702Z,0
2018-02-21T04:43:31.271Z,0
2018-02-21T04:44:11.910Z,0
2018-02-21T04:44:52.398Z,0
2018-02-21T04:45:32.994Z,0
2018-02-21T04:46:13.572Z,0
2018-02-21T04:46:54.130Z,0
2018-02-21T04:47:34.677Z,0
2018-02-21T04:48:15.237Z,0
2018-02-21T04:48:55.779Z,0
2018-02-21T04:49:36.332Z,0
2018-02-21T04:50:16.902Z,0
2018-02-21T04:50:57.450Z,0
2018-02-21T04:51:37.990Z,0
2018-02-21T04:52:18.588Z,0
2018-02-21T04:52:59.163Z,0
2018-02-21T04:53:39.742Z,0
2018-02-21T04:54:20.284Z,0
2018-02-21T04:55:00.831Z,0
2018-02-21T04:55:41.397Z,0
2018-02-21T04:56:21.976Z,0
2018-02-21T04:57:02.529Z,0
2018-02-21T04:57:43.098Z,0
2018-02-21T04:58:23.656Z,0
2018-02-21T04:59:04.498Z,0
2018-02-21T04:59:44.834Z,0
2018-02-21T05:00:25.380Z,0
2018-02-21T05:01:05.939Z,0
2018-02-21T05:01:46.527Z,0
2018-02-21T05:02:27.048Z,0
2018-02-21T05:03:07.615Z,0
2018-02-21T05:03:48.180Z,0
2018-02-21T05:04:28.738Z,0
2018-02-21T05:05:09.298Z,0
2018-02-21T05:05:49.871Z,0
2018-02-21T05:06:30.441Z,0
2018-02-21T05:07:11.067Z,0
2018-02-21T05:07:51.610Z,0
2018-02-21T05:08:32.164Z,0
2018-02-21T05:09:12.718Z,0
2018-02-21T05:09:53.362Z,0
2018-02-21T05:10:33.909Z,0
2018-02-21T05:11:14.477Z,0
2018-02-21T05:11:55.095Z,0
2018-02-21T05:12:35.601Z,0
2018-02-21T05:13:16.148Z,0
2018-02-21T05:13:56.698Z,0
2018-02-21T05:14:37.248Z,0
2018-02-21T05:15:17.813Z,0
2018-02-21T05:15:58.348Z,0
2018-02-21T05:16:38.896Z,0
2018-02-21T05:17:19.439Z,0
2018-02-21T05:18:00.016Z,0
2018-02-21T05:18:40.571Z,0
2018-02-21T05:19:21.127Z,0
2018-02-21T05:20:01.675Z,0
2018-02-21T05:20:42.228Z,0
2018-02-21T05:21:22.788Z,0
2018-02-21T05:22:03.320Z,0
2018-02-21T05:22:43.908Z,0
2018-02-21T05:23:24.463Z,0
2018-02-21T05:24:05.037Z,0
2018-02-21T05:24:45.619Z,0
2018-02-21T05:25:26.191Z,0
2018-02-21T05:26:06.732Z,0
2018-02-21T05:26:47.277Z,0
2018-02-21T05:27:27.820Z,0
2018-02-21T05:28:08.350Z,0
2018-02-21T05:28:48.909Z,0
2018-02-21T05:29:29.451Z,0
2018-02-21T05:30:10.025Z,0
2018-02-21T05:30:50.563Z,0
2018-02-21T05:31:31.122Z,0
2018-02-21T05:32:11.668Z,0
2018-02-21T05:32:52.211Z,0
2018-02-21T05:33:32.755Z,0
2018-02-21T05:34:13.313Z,0
2018-02-21T05:34:53.883Z,0
2018-02-21T05:35:34.441Z,0
2018-02-21T05:36:14.997Z,0
2018-02-21T05:36:55.549Z,0
2018-02-21T05:37:36.091Z,0
2018-02-21T05:38:16.651Z,0
2018-02-21T05:38:57.170Z,0
2018-02-21T05:39:37.722Z,0
2018-02-21T05:40:18.300Z,0
2018-02-21T05:40:58.871Z,0
2018-02-21T05:41:39.397Z,0
2018-02-21T05:42:19.967Z,0
2018-02-21T05:43:00.547Z,0
2018-02-21T05:43:41.139Z,0
2018-02-21T05:44:21.681Z,0
2018-02-21T05:45:02.246Z,0
2018-02-21T05:45:42.822Z,0
2018-02-21T05:46:23.559Z,0
2018-02-21T05:47:04.112Z,0
2018-02-21T05:47:44.663Z,0
2018-02-21T05:48:25.320Z,0
2018-02-21T05:49:05.895Z,0
2018-02-21T05:49:46.446Z,0
2018-02-21T05:50:27.003Z,0
2018-02-21T05:51:07.542Z,0
2018-02-21T05:51:48.090Z,0
2018-02-21T05:52:28.640Z,0
2018-02-21T05:53:09.223Z,0
2018-02-21T05:53:49.744Z,0
2018-02-21T05:54:30.317Z,0
2018-02-21T05:55:10.881Z,0
2018-02-21T05:55:51.416Z,0
2018-02-21T05:56:31.957Z,0
2018-02-21T05:57:12.511Z,0
2018-02-21T05:57:53.132Z,0
2018-02-21T05:58:33.696Z,0
2018-02-21T05:59:14.476Z,0
2018-02-21T05:59:55.002Z,0
2018-02-21T06:00:35.552Z,0
2018-02-21T06:01:16.152Z,0
2018-02-21T06:01:56.717Z,0
2018-02-21T06:02:37.317Z,0
2018-02-21T06:03:17.874Z,0
2018-02-21T06:03:58.441Z,0
2018-02-21T06:04:39.041Z,0
2018-02-21T06:05:19.586Z,0
2018-02-21T06:06:00.150Z,0
2018-02-21T06:06:40.717Z,0
2018-02-21T06:07:21.267Z,0
2018-02-21T06:08:01.839Z,0
2018-02-21T06:08:42.516Z,0
2018-02-21T06:09:23.082Z,0
2018-02-21T06:10:03.636Z,0
2018-02-21T06:10:45.631Z,5
2018-02-21T06:11:26.177Z,5
2018-02-21T06:12:06.729Z,5
2018-02-21T06:12:47.492Z,5
2018-02-21T06:13:28.926Z,5
2018-02-21T06:14:09.413Z,5
2018-02-21T06:14:49.963Z,5
2018-02-21T06:15:30.570Z,5
2018-02-21T06:16:11.085Z,5
2018-02-21T06:16:51.634Z,5
2018-02-21T06:17:32.198Z,5
2018-02-21T06:18:12.749Z,5
2018-02-21T06:18:53.327Z,5
2018-02-21T06:19:33.992Z,10
2018-02-21T06:20:14.528Z,10
2018-02-21T06:20:55.123Z,10
2018-02-21T06:21:35.678Z,10
2018-02-21T06:22:16.195Z,10
2018-02-21T06:22:56.731Z,10
2018-02-21T06:23:37.276Z,10
2018-02-21T06:24:17.833Z,10
2018-02-21T06:24:58.472Z,10
2018-02-21T06:25:39.045Z,15
2018-02-21T06:26:19.628Z,15
2018-02-21T06:27:00.139Z,15
2018-02-21T06:27:40.703Z,15
2018-02-21T06:28:21.266Z,15
2018-02-21T06:29:01.784Z,15
2018-02-21T06:29:42.332Z,15
2018-02-21T06:30:22.865Z,15
2018-02-21T06:31:03.430Z,20
2018-02-21T06:31:43.997Z,20
2018-02-21T06:32:24.557Z,20
2018-02-21T06:33:05.274Z,20
2018-02-21T06:33:45.876Z,20
2018-02-21T06:34:26.426Z,20
2018-02-21T06:35:06.971Z,20
2018-02-21T06:35:47.526Z,25
2018-02-21T06:36:28.063Z,25
2018-02-21T06:37:08.621Z,25
2018-02-21T06:37:49.158Z,25
2018-02-21T06:38:29.773Z,25
2018-02-21T06:39:10.297Z,25
2018-02-21T06:39:50.833Z,30
2018-02-21T06:40:31.388Z,30
2018-02-21T06:41:11.919Z,30
2018-02-21T06:41:52.548Z,30
2018-02-21T06:42:33.139Z,30
2018-02-21T06:43:13.730Z,30
2018-02-21T06:43:54.282Z,35
2018-02-21T06:44:34.857Z,35
2018-02-21T06:45:15.497Z,35
2018-02-21T06:45:56.069Z,35
2018-02-21T06:46:36.619Z,35
2018-02-21T06:47:17.327Z,35
2018-02-21T06:47:57.995Z,40
2018-02-21T06:48:38.545Z,40
2018-02-21T06:49:19.092Z,40
2018-02-21T06:49:59.637Z,40
2018-02-21T06:50:40.240Z,40
2018-02-21T06:51:20.816Z,45
2018-02-21T06:52:01.649Z,45
2018-02-21T06:52:42.204Z,45
2018-02-21T06:53:22.762Z,45
2018-02-21T06:54:03.325Z,50
2018-02-21T06:54:43.874Z,50
2018-02-21T06:55:24.424Z,50
2018-02-21T06:56:04.978Z,50
2018-02-21T06:56:45.641Z,55
2018-02-21T06:57:26.280Z,55
2018-02-21T06:58:06.865Z,55
2018-02-21T06:58:48.130Z,55
2018-02-21T06:59:28.752Z,55
2018-02-21T07:00:09.325Z,55
2018-02-21T07:00:49.880Z,55
2018-02-21T07:01:30.443Z,55
2018-02-21T07:02:10.988Z,55
2018-02-21T07:02:51.555Z,55
2018-02-21T07:03:32.117Z,55
2018-02-21T07:04:12.728Z,55
2018-02-21T07:04:53.284Z,60
2018-02-21T07:05:33.818Z,60
2018-02-21T07:06:14.623Z,60
2018-02-21T07:06:55.196Z,60
2018-02-21T07:07:35.773Z,65
2018-02-21T07:08:16.319Z,65
2018-02-21T07:08:56.872Z,60
2018-02-21T07:09:37.419Z,60
2018-02-21T07:10:17.984Z,60
2018-02-21T07:10:58.550Z,65
2018-02-21T07:11:39.140Z,65
2018-02-21T07:12:19.716Z,65
2018-02-21T07:13:00.390Z,70
2018-02-21T07:13:41.108Z,70
2018-02-21T07:14:21.787Z,70
2018-02-21T07:15:02.336Z,75
2018-02-21T07:15:42.893Z,75
2018-02-21T07:16:23.447Z,80
2018-02-21T07:17:04.008Z,85
2018-02-21T07:17:44.593Z,75
2018-02-21T07:18:25.156Z,75
2018-02-21T07:19:06.868Z,75
2018-02-21T07:19:47.430Z,80
2018-02-21T07:20:28.183Z,85
2018-02-21T07:21:08.727Z,90
2018-02-21T07:21:49.300Z,95
2018-02-21T07:22:29.861Z,95
2018-02-21T07:23:10.663Z,95
2018-02-21T07:23:51.273Z,100
2018-02-21T07:24:32.523Z,100
2018-02-21T07:25:13.543Z,100
2018-02-21T07:25:54.438Z,100
2018-02-21T07:26:35.196Z,100
2018-02-21T07:27:15.992Z,105
2018-02-21T07:27:56.467Z,110
2018-02-21T07:28:37.074Z,115
2018-02-21T07:29:17.957Z,115
2018-02-21T07:29:59.311Z,120
2018-02-21T07:30:39.926Z,120
2018-02-21T07:31:20.715Z,120
2018-02-21T07:32:01.406Z,120
2018-02-21T07:32:42.557Z,125
2018-02-21T07:33:23.442Z,130
2018-02-21T07:34:04.013Z,130
2018-02-21T07:34:44.602Z,125
2018-02-21T07:35:25.629Z,120
2018-02-21T07:36:08.087Z,120
2018-02-21T07:36:49.166Z,120
2018-02-21T07:37:29.755Z,125
2018-02-21T07:38:10.318Z,120
2018-02-21T07:38:50.913Z,125
2018-02-21T07:39:31.468Z,125
2018-02-21T07:40:12.028Z,135
2018-02-21T07:40:52.863Z,140
2018-02-21T07:41:35.190Z,150
2018-02-21T07:42:16.088Z,150
2018-02-21T07:42:56.935Z,155
2018-02-21T07:43:37.525Z,155
2018-02-21T07:44:19.273Z,155
2018-02-21T07:45:00.250Z,150
2018-02-21T07:45:41.587Z,145
2018-02-21T07:46:22.483Z,145
2018-02-21T07:47:03.541Z,145
2018-02-21T07:47:44.806Z,145
2018-02-21T07:48:27.042Z,145
2018-02-21T07:49:08.080Z,145
2018-02-21T07:49:48.854Z,150
2018-02-21T07:50:29.424Z,155
2018-02-21T07:51:10.083Z,150
2018-02-21T07:51:50.661Z,160
2018-02-21T07:52:31.213Z,160
2018-02-21T07:53:11.763Z,165
2018-02-21T07:53:52.352Z,170
2018-02-21T07:54:32.941Z,170
2018-02-21T07:55:13.592Z,165
2018-02-21T07:55:54.142Z,160
2018-02-21T07:56:35.754Z,160
2018-02-21T07:57:17.166Z,160
2018-02-21T07:57:58.431Z,155
2018-02-21T07:58:39.618Z,155
2018-02-21T07:59:20.704Z,150
2018-02-21T08:00:01.670Z,155
2018-02-21T08:00:42.668Z,155
2018-02-21T08:01:23.858Z,155
2018-02-21T08:02:04.590Z,155
2018-02-21T08:02:45.190Z,150
2018-02-21T08:03:25.748Z,150
2018-02-21T08:04:09.355Z,145
2018-02-21T08:04:51.241Z,145
2018-02-21T08:05:32.203Z,150
2018-02-21T08:06:13.311Z,150
2018-02-21T08:06:53.851Z,150
2018-02-21T08:07:34.389Z,150
2018-02-21T08:08:15.211Z,150
2018-02-21T08:08:56.155Z,150
2018-02-21T08:09:37.056Z,150
2018-02-21T08:10:17.868Z,155
2018-02-21T08:10:58.414Z,155
2018-02-21T08:11:39.002Z,160
2018-02-21T08:12:19.540Z,160
2018-02-21T08:13:00.123Z,165
2018-02-21T08:13:40.688Z,275
2018-02-21T08:14:21.297Z,640
2018-02-21T08:15:01.853Z,1035
2018-02-21T08:15:42.449Z,1180
2018-02-21T08:16:23.037Z,1145
2018-02-21T08:17:03.658Z,1105
2018-02-21T08:17:44.250Z,1035
2018-02-21T08:18:24.788Z,1065
2018-02-21T08:19:05.346Z,1125
2018-02-21T08:19:45.928Z,1145
2018-02-21T08:20:26.512Z,1135
2018-02-21T08:21:07.067Z,1110
2018-02-21T08:21:48.165Z,1095
2018-02-21T08:22:28.860Z,1085
2018-02-21T08:23:09.608Z,1130
2018-02-21T08:23:50.529Z,1160
2018-02-21T08:24:31.301Z,1175
2018-02-21T08:25:12.178Z,1140
2018-02-21T08:25:53.162Z,1165
2018-02-21T08:26:36.067Z,1165
2018-02-21T08:27:16.595Z,1140
2018-02-21T08:27:57.341Z,1135
2018-02-21T08:28:38.498Z,1135
2018-02-21T08:29:19.188Z,1135
2018-02-21T08:30:00.139Z,1130
2018-02-21T08:30:40.916Z,1070
2018-02-21T08:31:21.956Z,1075
2018-02-21T08:32:02.700Z,1125
2018-02-21T08:32:44.167Z,1110
2018-02-21T08:33:25.833Z,1045
2018-02-21T08:34:06.816Z,1045
2018-02-21T08:34:47.718Z,930
2018-02-21T08:35:28.407Z,865
2018-02-21T08:36:09.876Z,890
2018-02-21T08:36:51.952Z,905
2018-02-21T08:37:32.999Z,880
2018-02-21T08:38:13.545Z,930
2018-02-21T08:38:54.252Z,1035
2018-02-21T08:39:35.084Z,1095
2018-02-21T08:40:15.789Z,1140
2018-02-21T08:40:56.743Z,1190
2018-02-21T08:41:37.329Z,1205
2018-02-21T08:42:17.942Z,1200
2018-02-21T08:42:59.313Z,1235
2018-02-21T08:43:40.290Z,1230
2018-02-21T08:44:21.150Z,1195
2018-02-21T08:45:02.121Z,1190
2018-02-21T08:45:42.894Z,1185
2018-02-21T08:46:23.741Z,1190
2018-02-21T08:47:04.480Z,1170
2018-02-21T08:47:45.438Z,1195
2018-02-21T08:48:26.318Z,1205
2018-02-21T08:49:07.084Z,1205
2018-02-21T08:49:47.888Z,1175
2018-02-21T08:50:28.625Z,1175
2018-02-21T08:51:09.611Z,1185
2018-02-21T08:51:50.921Z,1195
2018-02-21T08:52:31.828Z,1180
2018-02-21T08:53:12.383Z,1180
2018-02-21T08:53:52.963Z,1205
2018-02-21T08:54:36.179Z,1240
2018-02-21T08:55:17.428Z,1220
2018-02-21T08:55:58.025Z,1145
2018-02-21T08:56:38.676Z,1160
2018-02-21T08:57:19.253Z,1190
2018-02-21T08:58:00.140Z,1250
2018-02-21T08:58:40.685Z,1240
2018-02-21T08:59:21.236Z,1250
2018-02-21T09:00:01.795Z,1270
2018-02-21T09:00:42.559Z,1240
2018-02-21T09:01:23.365Z,1145
2018-02-21T09:02:03.941Z,1030
2018-02-21T09:02:44.532Z,1070
2018-02-21T09:03:25.548Z,1135
2018-02-21T09:04:06.246Z,1185
2018-02-21T09:04:47.062Z,1220
2018-02-21T09:05:28.083Z,1205
2018-02-21T09:06:08.874Z,1160
2018-02-21T09:06:49.599Z,1015
2018-02-21T09:07:30.484Z,810
2018-02-21T09:08:11.401Z,565
2018-02-21T09:08:52.124Z,405
2018-02-21T09:09:32.899Z,385
2018-02-21T09:10:13.494Z,375
2018-02-21T09:10:54.188Z,365
2018-02-21T09:11:34.883Z,350
2018-02-21T09:12:15.672Z,350
2018-02-21T09:12:56.393Z,335
2018-02-21T09:13:37.419Z,325
2018-02-21T09:14:18.216Z,320
2018-02-21T09:14:59.101Z,320
2018-02-21T09:15:39.703Z,310
2018-02-21T09:16:20.662Z,300
2018-02-21T09:17:01.663Z,295
2018-02-21T09:17:42.741Z,285
2018-02-21T09:18:23.881Z,275
2018-02-21T09:19:04.549Z,275
2018-02-21T09:19:45.269Z,265
2018-02-21T09:20:26.019Z,270
2018-02-21T09:21:06.752Z,265
2018-02-21T09:21:47.483Z,260
2018-02-21T09:22:28.455Z,255
2018-02-21T09:23:09.021Z,255
2018-02-21T09:23:49.587Z,245
2018-02-21T09:24:30.159Z,240
2018-02-21T09:25:10.779Z,240
2018-02-21T09:25:51.378Z,235
2018-02-21T09:26:32.034Z,235
2018-02-21T09:27:12.589Z,225
2018-02-21T09:27:53.175Z,220
2018-02-21T09:28:33.812Z,220
2018-02-21T09:29:14.420Z,210
2018-02-21T09:29:54.998Z,210
2018-02-21T09:30:35.573Z,205
2018-02-21T09:31:16.161Z,200
2018-02-21T09:31:56.738Z,185
2018-02-21T09:32:37.337Z,180
2018-02-21T09:33:17.910Z,185
2018-02-21T09:33:58.488Z,185
2018-02-21T09:34:39.073Z,180
2018-02-21T09:35:19.627Z,180
2018-02-21T09:36:00.381Z,175
2018-02-21T09:36:40.959Z,175
2018-02-21T09:37:21.538Z,170
2018-02-21T09:38:03.095Z,170
2018-02-21T09:38:43.653Z,170
2018-02-21T09:39:24.399Z,170
2018-02-21T09:40:05.169Z,170
2018-02-21T09:40:45.806Z,170
2018-02-21T09:41:26.363Z,170
2018-02-21T09:42:06.913Z,170
2018-02-21T09:42:47.502Z,170
2018-02-21T09:43:28.470Z,170
2018-02-21T09:44:09.018Z,170
2018-02-21T09:44:49.570Z,175
2018-02-21T09:45:30.127Z,165
2018-02-21T09:46:10.675Z,165